Time;durP1;ratioP1;P1;durP2;ratioP2;P2;SDS_P1;SDS_P2;PMS_P1;PMS_P2;Temp;Humidity;BMP_temperature;BMP_pressure;BME280_temperature;BME280_humidity;BME280_pressure;Samples;Min_cycle;Max_cycle;Signal;HPM_P1;HPM_P2
2021/09/12 00:00:18;;;;;;;12.57;11.20;;;18.30;99.90;;;;;;5063343;28;20435;-58
2021/09/12 00:02:45;;;;;;;14.90;10.73;;;18.20;99.90;;;;;;5062515;28;20436;-55
2021/09/12 00:05:15;;;;;;;14.27;12.70;;;18.10;99.90;;;;;;5063365;28;20440;-60
2021/09/12 00:07:42;;;;;;;11.67;10.47;;;18.10;99.90;;;;;;5062801;28;20436;-59
2021/09/12 00:10:10;;;;;;;14.73;12.70;;;18.10;99.90;;;;;;5059860;28;20767;-59
2021/09/12 00:12:38;;;;;;;12.57;11.37;;;18.10;99.90;;;;;;5062450;28;20758;-57
2021/09/12 00:15:08;;;;;;;12.93;11.20;;;18.00;99.90;;;;;;5062368;28;20773;-61
2021/09/12 00:17:35;;;;;;;12.60;11.30;;;18.00;99.90;;;;;;5061116;28;20424;-58
2021/09/12 00:20:05;;;;;;;12.83;11.20;;;17.90;99.90;;;;;;5060531;28;20463;-60
2021/09/12 00:22:33;;;;;;;25.37;13.67;;;17.90;99.90;;;;;;5059519;28;20703;-59
2021/09/12 00:25:01;;;;;;;11.80;10.60;;;17.90;99.90;;;;;;5058786;28;20717;-59
2021/09/12 00:27:28;;;;;;;11.70;10.43;;;17.80;99.90;;;;;;5062491;28;20586;-58
2021/09/12 00:29:56;;;;;;;12.33;10.27;;;17.70;99.90;;;;;;5056261;28;20428;-57
2021/09/12 00:32:24;;;;;;;12.90;11.47;;;17.70;99.90;;;;;;5062710;28;20449;-60
2021/09/12 00:34:51;;;;;;;13.23;11.37;;;17.60;99.90;;;;;;5061154;28;20489;-59
2021/09/12 00:37:19;;;;;;;13.20;10.80;;;17.60;99.90;;;;;;5061561;28;20412;-59
2021/09/12 00:39:45;;;;;;;12.23;11.03;;;17.40;99.90;;;;;;5062035;28;20433;-58
2021/09/12 00:42:12;;;;;;;11.80;10.60;;;17.50;99.90;;;;;;5061340;28;20813;-60
2021/09/12 00:44:40;;;;;;;13.87;10.53;;;17.60;99.90;;;;;;5062046;28;20602;-56
2021/09/12 00:47:09;;;;;;;11.03;9.90;;;17.60;99.90;;;;;;5061234;28;20819;-59
2021/09/12 00:49:37;;;;;;;14.10;12.50;;;17.60;99.90;;;;;;5062637;28;20529;-54
2021/09/12 00:52:10;;;;;;;12.80;11.00;;;17.60;99.90;;;;;;5061858;28;20765;-61
2021/09/12 00:54:39;;;;;;;10.50;9.27;;;17.60;99.90;;;;;;5056886;28;20491;-58
2021/09/12 00:57:09;;;;;;;13.23;11.23;;;17.60;99.90;;;;;;5061147;28;20489;-57
2021/09/12 00:59:38;;;;;;;11.90;10.63;;;17.60;99.90;;;;;;5061168;28;20829;-57
2021/09/12 01:02:06;;;;;;;11.30;10.20;;;17.60;99.90;;;;;;5061243;28;20460;-58
2021/09/12 01:04:35;;;;;;;11.17;9.90;;;17.50;99.90;;;;;;5062031;28;20502;-57
2021/09/12 01:07:05;;;;;;;11.20;10.10;;;17.50;99.90;;;;;;5061347;28;20418;-59
2021/09/12 01:09:34;;;;;;;11.67;10.47;;;17.50;99.90;;;;;;5061848;28;20422;-61
2021/09/12 01:12:02;;;;;;;12.27;10.50;;;17.50;99.90;;;;;;5061330;28;20506;-58
2021/09/12 01:14:30;;;;;;;17.43;10.33;;;17.40;99.90;;;;;;5061814;28;20451;-57
2021/09/12 01:16:59;;;;;;;14.20;10.10;;;17.30;99.90;;;;;;5061877;28;20575;-57
2021/09/12 01:19:27;;;;;;;12.33;11.13;;;17.20;99.90;;;;;;5061489;28;20456;-57
2021/09/12 01:21:59;;;;;;;10.97;9.90;;;17.20;99.90;;;;;;5061076;28;20476;-54
2021/09/12 01:24:28;;;;;;;13.30;11.13;;;17.20;99.90;;;;;;5054124;28;20496;-58
2021/09/12 01:26:56;;;;;;;11.57;10.37;;;17.30;99.90;;;;;;5061662;28;20512;-59
2021/09/12 01:29:23;;;;;;;12.40;11.10;;;17.30;99.90;;;;;;5061507;28;20410;-59
2021/09/12 01:31:51;;;;;;;11.10;9.90;;;17.30;99.90;;;;;;5061492;28;20459;-56
2021/09/12 01:34:18;;;;;;;12.40;11.00;;;17.30;99.90;;;;;;5061018;28;20472;-59
2021/09/12 01:36:45;;;;;;;13.30;11.77;;;17.20;99.90;;;;;;5060255;28;20535;-60
2021/09/12 01:39:12;;;;;;;12.63;11.20;;;17.20;99.90;;;;;;5061166;28;20710;-61
2021/09/12 01:41:40;;;;;;;12.17;10.87;;;17.20;99.90;;;;;;5059330;28;20483;-59
2021/09/12 01:44:07;;;;;;;12.67;10.93;;;17.20;99.90;;;;;;5060738;28;20457;-59
2021/09/12 01:46:34;;;;;;;13.23;11.93;;;17.20;99.90;;;;;;5061292;28;20443;-60
2021/09/12 01:49:06;;;;;;;12.33;11.03;;;17.20;99.90;;;;;;5060681;28;20437;-61
2021/09/12 01:51:33;;;;;;;13.57;11.40;;;17.20;99.90;;;;;;5061213;28;20516;-57
2021/09/12 01:54:00;;;;;;;13.67;11.10;;;17.10;99.90;;;;;;5061730;28;20438;-60
2021/09/12 01:56:27;;;;;;;11.60;10.27;;;17.20;99.90;;;;;;5061101;28;20442;-58
2021/09/12 01:58:54;;;;;;;15.53;12.40;;;17.20;99.90;;;;;;5061684;28;20621;-54
2021/09/12 02:01:21;;;;;;;11.70;10.50;;;17.20;99.90;;;;;;5060971;28;20445;-60
2021/09/12 02:03:49;;;;;;;11.30;10.10;;;17.10;99.90;;;;;;5062032;28;20482;-58
2021/09/12 02:06:16;;;;;;;10.60;9.50;;;16.90;99.90;;;;;;5054087;28;20411;-61
2021/09/12 02:08:43;;;;;;;13.63;10.90;;;17.00;99.90;;;;;;5061203;28;20434;-61
2021/09/12 02:11:11;;;;;;;14.00;12.30;;;17.00;99.90;;;;;;5058059;28;20656;-60
2021/09/12 02:13:39;;;;;;;15.00;12.60;;;17.00;99.90;;;;;;5061790;28;20508;-60
2021/09/12 02:16:06;;;;;;;12.03;9.97;;;17.00;99.90;;;;;;5060145;28;20432;-61
2021/09/12 02:18:33;;;;;;;13.23;10.10;;;17.10;99.90;;;;;;5062072;28;20496;-58
2021/09/12 02:21:00;;;;;;;15.13;11.80;;;17.10;99.90;;;;;;5060433;28;20469;-60
2021/09/12 02:23:28;;;;;;;15.57;11.20;;;17.10;99.90;;;;;;5061427;28;20409;-60
2021/09/12 02:25:55;;;;;;;15.03;12.33;;;17.10;99.90;;;;;;5061129;28;20420;-58
2021/09/12 02:28:22;;;;;;;16.80;11.57;;;17.10;99.90;;;;;;5061225;28;20404;-62
2021/09/12 02:30:49;;;;;;;13.43;11.87;;;17.10;99.90;;;;;;5061285;28;20501;-57
2021/09/12 02:33:17;;;;;;;14.17;12.57;;;17.10;99.90;;;;;;5060429;28;20485;-58
2021/09/12 02:35:44;;;;;;;15.10;12.37;;;17.10;99.90;;;;;;5061183;28;20417;-60
2021/09/12 02:38:12;;;;;;;15.10;11.90;;;17.10;99.90;;;;;;5059832;28;20561;-61
2021/09/12 02:40:40;;;;;;;15.67;10.90;;;17.00;99.90;;;;;;5060834;28;20796;-61
2021/09/12 02:43:08;;;;;;;13.37;11.90;;;17.10;99.90;;;;;;5059680;28;20503;-57
2021/09/12 02:45:36;;;;;;;13.10;11.77;;;17.00;99.90;;;;;;5060339;28;20443;-59
2021/09/12 02:48:04;;;;;;;12.77;11.57;;;17.00;99.90;;;;;;5060082;28;20459;-54
2021/09/12 02:50:31;;;;;;;13.77;10.50;;;17.00;99.90;;;;;;5059725;28;20419;-59
2021/09/12 02:52:58;;;;;;;14.13;11.73;;;16.90;99.90;;;;;;5060391;28;20417;-59
2021/09/12 02:55:25;;;;;;;14.27;11.93;;;16.90;99.90;;;;;;5060604;28;20736;-58
2021/09/12 02:57:53;;;;;;;13.13;11.33;;;16.80;99.90;;;;;;5059561;28;20453;-58
2021/09/12 03:00:20;;;;;;;12.10;9.97;;;16.80;99.90;;;;;;5060318;28;20691;-59
2021/09/12 03:02:48;;;;;;;12.40;10.63;;;16.80;99.90;;;;;;5055464;28;20457;-58
2021/09/12 03:05:16;;;;;;;15.90;13.30;;;16.80;99.90;;;;;;5059419;28;20406;-61
2021/09/12 03:07:43;;;;;;;15.13;11.90;;;16.80;99.90;;;;;;5060027;28;20485;-60
2021/09/12 03:10:10;;;;;;;15.53;13.00;;;16.80;99.90;;;;;;5059408;28;20434;-58
2021/09/12 03:12:38;;;;;;;12.10;10.47;;;16.70;99.90;;;;;;5059782;28;20420;-61
2021/09/12 03:15:07;;;;;;;13.40;11.77;;;16.70;99.90;;;;;;5059529;28;20451;-56
2021/09/12 03:17:34;;;;;;;14.80;12.50;;;16.70;99.90;;;;;;5042489;28;20425;-57
2021/09/12 03:20:01;;;;;;;15.30;10.80;;;16.60;99.90;;;;;;5059621;28;20438;-60
2021/09/12 03:22:28;;;;;;;15.10;12.13;;;16.70;99.90;;;;;;5060281;28;20457;-59
2021/09/12 03:24:55;;;;;;;14.43;11.23;;;16.70;99.90;;;;;;5063327;28;20457;-56
2021/09/12 03:27:22;;;;;;;14.60;11.20;;;16.70;99.90;;;;;;5063976;28;20577;-61
2021/09/12 03:29:50;;;;;;;13.53;11.63;;;16.70;99.90;;;;;;5063783;28;20434;-61
2021/09/12 03:32:17;;;;;;;12.17;10.83;;;16.60;99.90;;;;;;5063605;28;20511;-59
2021/09/12 03:34:44;;;;;;;12.80;11.00;;;16.60;99.90;;;;;;5063455;28;20409;-57
2021/09/12 03:37:11;;;;;;;12.70;11.38;;;16.60;99.90;;;;;;5063675;28;20420;-59
2021/09/12 03:39:39;;;;;;;13.63;10.63;;;16.60;99.90;;;;;;5063647;28;20237;-60
2021/09/12 03:42:06;;;;;;;16.07;11.90;;;16.60;99.90;;;;;;5064598;28;20494;-53
2021/09/12 03:44:33;;;;;;;13.97;11.73;;;16.60;99.90;;;;;;5059888;28;20462;-55
2021/09/12 03:47:00;;;;;;;13.90;11.80;;;16.60;99.90;;;;;;5063297;28;20441;-57
2021/09/12 03:49:27;;;;;;;14.32;11.38;;;16.50;99.90;;;;;;5066601;28;20405;-54
2021/09/12 03:51:54;;;;;;;16.50;13.82;;;16.20;99.90;;;;;;5064890;28;20224;-55
2021/09/12 03:54:22;;;;;;;14.95;11.90;;;16.30;99.90;;;;;;5064402;28;20262;-61
2021/09/12 03:56:49;;;;;;;13.13;11.82;;;16.40;99.90;;;;;;5059262;28;20348;-58
2021/09/12 03:59:16;;;;;;;16.02;12.30;;;16.40;99.90;;;;;;5063150;28;20220;-60
2021/09/12 04:01:43;;;;;;;13.57;11.65;;;16.40;99.90;;;;;;5063675;28;20274;-60
2021/09/12 04:04:11;;;;;;;16.37;13.40;;;16.50;99.90;;;;;;5063456;28;20195;-59
2021/09/12 04:06:38;;;;;;;15.07;13.40;;;16.50;99.90;;;;;;5062910;28;20483;-58
2021/09/12 04:09:05;;;;;;;16.92;13.52;;;16.50;99.90;;;;;;5063087;28;20391;-60
2021/09/12 04:11:32;;;;;;;15.35;12.77;;;16.50;99.90;;;;;;5062557;28;20227;-61
2021/09/12 04:13:59;;;;;;;15.27;13.15;;;16.50;99.90;;;;;;5063015;28;20239;-59
2021/09/12 04:16:27;;;;;;;15.95;11.95;;;16.50;99.90;;;;;;5062831;28;20198;-59
2021/09/12 04:18:55;;;;;;;14.60;13.03;;;16.50;99.90;;;;;;5062492;28;20502;-59
2021/09/12 04:21:21;;;;;;;14.40;12.40;;;16.50;99.90;;;;;;5062775;28;20454;-59
2021/09/12 04:23:49;;;;;;;13.87;12.40;;;16.50;99.90;;;;;;5062510;28;20408;-55
2021/09/12 04:26:16;;;;;;;12.77;11.48;;;16.40;99.90;;;;;;5062663;28;20760;-54
2021/09/12 04:28:43;;;;;;;14.13;12.45;;;16.40;99.90;;;;;;5063254;28;20205;-62
2021/09/12 04:31:12;;;;;;;18.37;11.70;;;16.40;99.90;;;;;;5062152;28;20247;-58
2021/09/12 04:33:39;;;;;;;12.52;10.20;;;16.50;99.90;;;;;;5061972;28;20450;-57
2021/09/12 04:36:06;;;;;;;12.25;10.50;;;16.40;99.90;;;;;;5062566;28;20326;-60
2021/09/12 04:38:33;;;;;;;13.50;12.10;;;16.40;99.90;;;;;;5062714;28;20200;-56
2021/09/12 04:41:02;;;;;;;12.30;11.00;;;16.40;99.90;;;;;;5039466;28;20447;-58
2021/09/12 04:43:29;;;;;;;14.30;11.88;;;16.50;99.90;;;;;;5044331;28;20286;-60
2021/09/12 04:45:56;;;;;;;14.40;11.47;;;16.50;99.90;;;;;;5062179;28;20204;-60
2021/09/12 04:48:23;;;;;;;13.25;11.48;;;16.50;99.90;;;;;;5062096;28;20660;-59
2021/09/12 04:50:52;;;;;;;17.50;13.73;;;16.50;99.90;;;;;;5062575;28;20262;-59
2021/09/12 04:53:19;;;;;;;14.67;13.17;;;16.60;99.90;;;;;;5062120;28;20413;-60
2021/09/12 04:55:46;;;;;;;14.67;11.53;;;16.50;99.90;;;;;;5062172;28;20454;-59
2021/09/12 04:58:13;;;;;;;13.57;11.90;;;16.60;99.90;;;;;;5061882;28;20438;-59
2021/09/12 05:00:41;;;;;;;12.80;11.40;;;16.50;99.90;;;;;;5061816;28;20279;-61
2021/09/12 05:03:08;;;;;;;16.48;12.45;;;16.50;99.90;;;;;;5061906;28;20240;-61
2021/09/12 05:05:35;;;;;;;13.98;12.65;;;16.60;99.90;;;;;;5061810;28;20255;-56
2021/09/12 05:08:03;;;;;;;16.73;12.77;;;16.70;99.90;;;;;;5061898;28;20205;-61
2021/09/12 05:10:30;;;;;;;14.80;13.20;;;16.80;99.90;;;;;;5061703;28;20476;-60
2021/09/12 05:12:57;;;;;;;18.10;14.03;;;16.90;99.90;;;;;;5061580;28;20405;-58
2021/09/12 05:15:25;;;;;;;20.70;13.57;;;17.10;99.90;;;;;;5043839;28;20669;-56
2021/09/12 05:17:52;;;;;;;17.10;15.30;;;17.40;99.90;;;;;;5061463;28;20734;-60
2021/09/12 05:20:19;;;;;;;15.33;13.73;;;17.60;99.90;;;;;;5059029;28;20444;-60
2021/09/12 05:22:46;;;;;;;16.40;13.70;;;17.80;99.90;;;;;;5061565;28;20516;-57
2021/09/12 05:25:14;;;;;;;14.90;13.53;;;18.20;99.90;;;;;;5061350;28;20625;-55
2021/09/12 05:27:41;;;;;;;18.83;13.10;;;18.50;99.90;;;;;;5061422;28;20676;-60
2021/09/12 05:30:10;;;;;;;13.33;11.93;;;18.70;99.90;;;;;;5061007;28;20785;-58
2021/09/12 05:32:37;;;;;;;14.07;12.63;;;19.00;99.90;;;;;;5061540;28;20620;-61
2021/09/12 05:35:05;;;;;;;11.63;10.40;;;19.10;99.90;;;;;;5061243;28;20410;-60
2021/09/12 05:37:32;;;;;;;11.93;10.73;;;19.30;99.90;;;;;;5061074;28;20419;-58
2021/09/12 05:39:59;;;;;;;11.63;10.47;;;19.30;99.90;;;;;;5061200;28;20410;-54
2021/09/12 05:42:26;;;;;;;12.40;11.20;;;19.50;99.90;;;;;;5060565;28;20634;-59
2021/09/12 05:44:53;;;;;;;11.57;10.37;;;19.60;99.90;;;;;;5060808;28;20557;-61
2021/09/12 05:47:20;;;;;;;13.70;10.20;;;19.50;99.90;;;;;;5060721;28;20520;-62
2021/09/12 05:49:47;;;;;;;11.17;10.03;;;19.60;99.90;;;;;;5061472;28;20439;-61
2021/09/12 05:52:15;;;;;;;16.40;10.97;;;19.80;99.90;;;;;;5060840;28;20478;-59
2021/09/12 05:54:42;;;;;;;9.67;8.77;;;19.80;99.90;;;;;;5061388;28;20448;-59
2021/09/12 05:57:09;;;;;;;11.40;10.20;;;19.80;99.90;;;;;;5061024;28;20452;-61
2021/09/12 05:59:36;;;;;;;11.43;10.23;;;19.70;99.90;;;;;;5061050;28;20436;-61
2021/09/12 06:02:03;;;;;;;11.63;10.53;;;19.80;99.90;;;;;;5060683;28;20464;-59
2021/09/12 06:04:31;;;;;;;11.97;10.30;;;19.90;99.90;;;;;;5036664;28;20493;-58
2021/09/12 06:06:58;;;;;;;11.30;10.20;;;20.00;99.90;;;;;;5056922;28;20445;-59
2021/09/12 06:09:25;;;;;;;12.33;10.50;;;20.00;99.90;;;;;;5060290;28;20432;-59
2021/09/12 06:11:53;;;;;;;10.60;9.50;;;19.80;99.90;;;;;;5057729;28;20672;-54
2021/09/12 06:14:20;;;;;;;12.40;10.00;;;19.60;99.90;;;;;;5057525;28;20411;-59
2021/09/12 06:16:48;;;;;;;11.00;9.90;;;19.60;99.90;;;;;;5059824;28;20429;-59
2021/09/12 06:19:14;;;;;;;13.47;11.60;;;19.90;99.90;;;;;;5060082;28;20445;-59
2021/09/12 06:21:42;;;;;;;11.77;8.53;;;20.00;99.90;;;;;;5060382;28;20514;-59
2021/09/12 06:24:09;;;;;;;10.83;9.73;;;20.20;99.90;;;;;;5060054;28;20468;-60
2021/09/12 06:26:36;;;;;;;12.70;9.80;;;20.30;99.90;;;;;;5054975;28;20473;-61
2021/09/12 06:29:03;;;;;;;11.97;10.63;;;20.40;99.90;;;;;;5060330;28;20680;-57
2021/09/12 06:31:31;;;;;;;12.87;11.67;;;20.40;99.90;;;;;;5060107;28;20460;-61
2021/09/12 06:33:58;;;;;;;10.87;9.77;;;20.40;99.90;;;;;;5059933;28;20429;-57
2021/09/12 06:36:25;;;;;;;11.10;10.00;;;20.50;99.90;;;;;;5060254;28;20486;-61
2021/09/12 06:38:52;;;;;;;11.03;8.80;;;20.60;99.90;;;;;;5053818;28;20455;-57
2021/09/12 06:41:20;;;;;;;9.63;8.73;;;20.70;99.90;;;;;;5052043;28;20818;-56
2021/09/12 06:43:47;;;;;;;10.87;9.70;;;20.90;99.90;;;;;;5060203;28;20541;-60
2021/09/12 06:46:14;;;;;;;10.60;9.13;;;20.80;99.90;;;;;;5054018;28;20420;-55
2021/09/12 06:48:41;;;;;;;11.33;10.20;;;21.00;99.90;;;;;;5055080;28;20475;-59
2021/09/12 06:51:11;;;;;;;10.33;9.30;;;21.00;99.90;;;;;;5059827;28;20458;-58
2021/09/12 06:53:38;;;;;;;10.47;9.40;;;21.10;99.90;;;;;;5060160;28;20441;-60
2021/09/12 06:56:05;;;;;;;11.30;10.20;;;21.20;99.90;;;;;;5059942;28;20437;-59
2021/09/12 06:58:32;;;;;;;9.77;8.77;;;21.60;99.90;;;;;;5053588;28;20459;-59
2021/09/12 07:01:00;;;;;;;10.53;8.60;;;21.80;99.90;;;;;;5059585;28;20484;-58
2021/09/12 07:03:27;;;;;;;15.50;9.50;;;22.10;99.90;;;;;;5059559;28;20481;-60
2021/09/12 07:05:55;;;;;;;9.67;8.30;;;22.50;99.90;;;;;;5059311;28;20405;-59
2021/09/12 07:08:22;;;;;;;10.53;9.47;;;22.70;99.90;;;;;;5059956;28;20815;-60
2021/09/12 07:10:49;;;;;;;9.57;8.67;;;23.00;99.90;;;;;;5059745;28;20460;-57
2021/09/12 07:13:17;;;;;;;11.07;8.20;;;23.20;99.90;;;;;;5059550;28;20494;-58
2021/09/12 07:15:44;;;;;;;9.13;8.23;;;23.60;99.90;;;;;;5060129;28;20436;-58
2021/09/12 07:18:11;;;;;;;9.80;8.80;;;24.20;99.90;;;;;;5059446;28;20441;-58
2021/09/12 07:20:38;;;;;;;10.63;9.60;;;24.60;99.90;;;;;;5054320;28;20481;-62
2021/09/12 07:23:06;;;;;;;11.27;9.90;;;24.60;99.90;;;;;;5059031;28;20574;-59
2021/09/12 07:25:33;;;;;;;10.67;9.50;;;24.10;99.90;;;;;;5059700;28;20436;-61
2021/09/12 07:28:01;;;;;;;11.83;10.57;;;23.90;99.90;;;;;;5059215;28;20439;-60
2021/09/12 07:30:28;;;;;;;14.43;11.90;;;23.70;99.90;;;;;;5059426;28;20452;-60
2021/09/12 07:32:56;;;;;;;14.30;10.37;;;23.20;99.90;;;;;;5059330;28;20445;-59
2021/09/12 07:35:23;;;;;;;12.30;11.07;;;22.80;99.90;;;;;;5060090;28;20441;-59
2021/09/12 07:37:51;;;;;;;13.03;11.10;;;23.00;99.90;;;;;;5052994;28;20456;-58
2021/09/12 07:40:18;;;;;;;10.47;9.57;;;23.00;99.90;;;;;;5059155;28;20666;-60
2021/09/12 07:42:47;;;;;;;13.57;11.40;;;23.30;99.90;;;;;;5059362;28;20522;-54
2021/09/12 07:45:14;;;;;;;12.57;11.27;;;25.00;99.90;;;;;;5059341;28;20423;-60
2021/09/12 07:47:41;;;;;;;13.07;9.97;;;26.60;99.90;;;;;;5059721;28;20627;-59
2021/09/12 07:50:09;;;;;;;11.70;10.50;;;28.70;99.90;;;;;;5059530;28;20740;-58
2021/09/12 07:52:41;;;;;;;12.77;11.47;;;30.40;99.90;;;;;;5054886;28;20482;-60
2021/09/12 07:55:10;;;;;;;12.93;11.63;;;31.70;99.90;;;;;;5058493;28;20608;-57
2021/09/12 07:57:38;;;;;;;13.27;11.97;;;31.80;99.90;;;;;;5055411;28;20485;-59
2021/09/12 08:00:06;;;;;;;11.83;10.63;;;31.40;99.90;;;;;;5048690;28;20484;-56
2021/09/12 08:02:34;;;;;;;11.23;10.23;;;30.80;99.90;;;;;;5057277;28;20483;-59
2021/09/12 08:05:01;;;;;;;10.73;9.63;;;31.00;99.90;;;;;;5059134;28;20433;-57
2021/09/12 08:07:29;;;;;;;12.10;11.10;;;31.10;99.90;;;;;;5059426;28;20740;-57
2021/09/12 08:09:56;;;;;;;10.97;9.97;;;31.10;99.90;;;;;;5061819;28;21175;-57
2021/09/12 08:12:23;;;;;;;11.90;10.83;;;30.90;99.90;;;;;;5062287;28;20482;-57
2021/09/12 08:14:50;;;;;;;12.10;11.00;;;29.60;99.90;;;;;;5062849;28;20798;-60
2021/09/12 08:17:18;;;;;;;13.27;12.07;;;29.00;99.90;;;;;;5062914;28;20682;-61
2021/09/12 08:19:45;;;;;;;12.33;11.23;;;28.20;99.90;;;;;;5062865;28;20490;-60
2021/09/12 08:22:12;;;;;;;11.20;10.30;;;28.30;99.90;;;;;;5057492;28;20460;-54
2021/09/12 08:24:39;;;;;;;11.50;10.40;;;28.30;99.90;;;;;;5062423;28;20652;-60
2021/09/12 08:27:06;;;;;;;12.27;11.23;;;29.70;99.90;;;;;;5059281;28;20437;-57
2021/09/12 08:29:33;;;;;;;12.30;11.30;;;30.70;99.90;;;;;;5063180;28;20494;-57
2021/09/12 08:32:00;;;;;;;15.60;14.20;;;31.40;99.90;;;;;;5061658;28;20483;-56
2021/09/12 08:34:28;;;;;;;13.33;12.13;;;32.40;98.40;;;;;;5062501;28;20443;-60
2021/09/12 08:36:55;;;;;;;13.93;12.63;;;33.90;96.30;;;;;;5059067;28;20441;-53
2021/09/12 08:39:23;;;;;;;12.80;11.80;;;34.30;94.20;;;;;;5062329;28;20439;-55
2021/09/12 08:41:54;;;;;;;12.70;11.60;;;34.70;92.80;;;;;;5058833;28;20690;-57
2021/09/12 08:44:22;;;;;;;13.50;12.43;;;32.80;94.70;;;;;;5057859;28;20481;-59
2021/09/12 08:46:48;;;;;;;14.13;13.03;;;31.30;97.50;;;;;;5052482;28;20434;-56
2021/09/12 08:49:16;;;;;;;10.93;10.10;;;32.00;96.20;;;;;;5053920;28;20456;-55
2021/09/12 08:51:43;;;;;;;11.87;10.93;;;32.40;95.90;;;;;;5059012;28;20573;-52
2021/09/12 08:54:11;;;;;;;11.33;10.43;;;33.70;94.50;;;;;;5059806;28;20444;-58
2021/09/12 08:56:38;;;;;;;12.67;11.67;;;35.00;92.50;;;;;;5054558;28;20452;-59
2021/09/12 08:59:23;;;;;;;13.57;12.67;;;35.40;91.40;;;;;;5052352;28;20444;-57
2021/09/12 09:01:57;;;;;;;11.90;10.90;;;34.70;91.80;;;;;;5055476;28;20502;-58
2021/09/12 09:04:27;;;;;;;12.13;11.17;;;33.70;92.70;;;;;;5048527;28;20478;-58
2021/09/12 09:07:11;;;;;;;12.77;11.87;;;33.20;92.50;;;;;;5048152;28;20433;-58
2021/09/12 09:09:39;;;;;;;11.00;10.10;;;33.30;92.90;;;;;;5060117;28;20793;-57
2021/09/12 09:12:41;;;;;;;10.00;9.20;;;31.00;96.60;;;;;;5060353;28;20457;-58
2021/09/12 09:15:15;;;;;;;10.50;9.63;;;29.40;98.20;;;;;;5020775;28;20456;-58
2021/09/12 09:17:46;;;;;;;14.80;13.53;;;29.00;98.70;;;;;;5061760;28;20577;-54
2021/09/12 09:20:34;;;;;;;10.50;9.60;;;28.90;99.10;;;;;;5060119;28;20535;-57
2021/09/12 09:23:06;;;;;;;10.67;9.27;;;28.20;99.90;;;;;;5060765;28;20472;-56
2021/09/12 09:25:34;;;;;;;12.80;11.50;;;27.70;99.90;;;;;;5061260;28;20674;-55
2021/09/12 09:28:08;;;;;;;10.27;9.27;;;27.70;99.90;;;;;;5061377;28;20703;-57
2021/09/12 09:30:49;;;;;;;8.70;8.00;;;27.40;99.90;;;;;;5061461;28;20459;-59
2021/09/12 09:33:23;;;;;;;8.30;7.70;;;26.80;99.90;;;;;;5060024;28;20773;-54
2021/09/12 09:35:53;;;;;;;8.30;7.60;;;26.40;99.90;;;;;;5060269;28;20472;-61
2021/09/12 09:38:22;;;;;;;8.90;8.20;;;26.40;99.90;;;;;;5056047;28;20428;-56
2021/09/12 09:41:19;;;;;;;7.60;6.90;;;26.80;99.90;;;;;;5052466;28;20527;-54
2021/09/12 09:43:50;;;;;;;8.53;7.83;;;26.90;99.90;;;;;;5060134;28;20527;-57
2021/09/12 09:46:31;;;;;;;8.13;7.43;;;26.70;99.90;;;;;;5060789;28;20441;-58
2021/09/12 09:49:22;;;;;;;8.07;7.30;;;26.80;99.90;;;;;;5058225;28;20447;-57
2021/09/12 09:51:51;;;;;;;7.90;7.30;;;26.70;99.90;;;;;;5047928;28;20687;-57
2021/09/12 09:54:21;;;;;;;7.77;7.17;;;26.80;99.90;;;;;;5044547;28;20437;-57
2021/09/12 09:56:49;;;;;;;7.73;7.13;;;26.60;99.90;;;;;;5047372;28;20512;-58
2021/09/12 09:59:18;;;;;;;7.50;7.00;;;26.50;99.90;;;;;;5060096;28;20444;-58
2021/09/12 10:01:51;;;;;;;7.70;7.10;;;26.40;99.90;;;;;;5057547;28;20790;-56
2021/09/12 10:04:19;;;;;;;8.07;7.47;;;26.50;99.90;;;;;;5050654;28;20501;-58
2021/09/12 10:06:48;;;;;;;7.80;7.10;;;26.20;99.90;;;;;;5059857;28;20430;-56
2021/09/12 10:09:17;;;;;;;7.23;6.73;;;25.90;99.90;;;;;;5060219;28;20441;-58
2021/09/12 10:12:00;;;;;;;7.53;7.03;;;25.60;99.90;;;;;;5059436;28;20468;-54
2021/09/12 10:14:41;;;;;;;8.23;7.63;;;25.40;99.90;;;;;;5060612;28;20759;-55
2021/09/12 10:17:14;;;;;;;7.00;6.50;;;25.40;99.90;;;;;;5060131;28;20626;-57
2021/09/12 10:19:42;;;;;;;7.37;6.83;;;25.30;99.90;;;;;;5060922;28;20426;-52
2021/09/12 10:22:13;;;;;;;7.20;6.60;;;25.50;99.90;;;;;;5059664;28;20854;-55
2021/09/12 10:25:01;;;;;;;6.27;5.67;;;25.90;99.90;;;;;;5060306;28;20476;-58
2021/09/12 10:27:34;;;;;;;6.63;6.13;;;25.90;99.90;;;;;;5053615;28;20773;-57
2021/09/12 10:30:26;;;;;;;7.30;6.80;;;25.80;99.90;;;;;;5057639;28;20440;-56
2021/09/12 10:33:17;;;;;;;6.97;6.47;;;25.60;99.90;;;;;;5056267;28;20494;-59
2021/09/12 10:35:48;;;;;;;6.27;5.87;;;25.80;99.90;;;;;;5058717;28;20432;-56
2021/09/12 10:38:31;;;;;;;6.63;6.23;;;26.00;99.90;;;;;;5059472;28;20476;-57
2021/09/12 10:41:04;;;;;;;7.23;6.73;;;26.20;99.90;;;;;;5059696;28;20430;-54
2021/09/12 10:43:31;;;;;;;7.03;6.53;;;26.50;99.90;;;;;;5059934;28;20516;-54
2021/09/12 10:46:01;;;;;;;7.00;6.50;;;26.70;99.90;;;;;;5059530;28;20461;-60
2021/09/12 10:48:38;;;;;;;7.60;6.90;;;27.20;99.90;;;;;;5059725;28;20777;-54
2021/09/12 10:51:11;;;;;;;7.40;6.70;;;27.20;99.90;;;;;;5063182;28;20450;-59
2021/09/12 10:53:47;;;;;;;6.57;6.07;;;27.30;99.90;;;;;;5065551;28;20471;-57
2021/09/12 10:56:17;;;;;;;6.70;6.20;;;27.40;99.90;;;;;;5064909;28;20478;-58
2021/09/12 10:58:52;;;;;;;7.47;6.87;;;27.30;99.90;;;;;;5065604;28;20448;-59
2021/09/12 11:01:55;;;;;;;7.17;6.63;;;27.30;99.90;;;;;;5059310;28;20693;-58
2021/09/12 11:04:31;;;;;;;6.77;6.27;;;27.10;99.90;;;;;;5060341;28;20477;-59
2021/09/12 11:07:02;;;;;;;6.97;6.47;;;27.10;99.90;;;;;;5059439;28;20434;-58
2021/09/12 11:09:29;;;;;;;7.80;7.30;;;26.90;99.90;;;;;;5059697;28;20573;-56
2021/09/12 11:11:58;;;;;;;8.27;7.67;;;26.70;99.90;;;;;;5059285;28;20460;-57
2021/09/12 11:14:26;;;;;;;6.97;6.50;;;26.70;99.90;;;;;;5053216;28;20485;-57
2021/09/12 11:16:53;;;;;;;7.20;6.70;;;26.80;99.90;;;;;;5056248;28;20456;-55
2021/09/12 11:19:21;;;;;;;7.67;6.97;;;26.60;99.90;;;;;;5055656;28;20801;-58
2021/09/12 11:21:50;;;;;;;7.20;6.60;;;26.90;99.90;;;;;;5058981;28;20454;-57
2021/09/12 11:24:24;;;;;;;6.70;6.30;;;27.00;99.90;;;;;;5059485;28;20486;-57
2021/09/12 11:26:59;;;;;;;7.37;6.80;;;27.20;99.90;;;;;;5058261;28;20433;-60
2021/09/12 11:29:29;;;;;;;7.07;5.77;;;27.10;99.90;;;;;;5054628;28;20438;-59
2021/09/12 11:32:02;;;;;;;6.23;5.73;;;27.10;99.90;;;;;;5059158;28;20462;-57
2021/09/12 11:34:29;;;;;;;5.73;5.33;;;27.10;99.90;;;;;;5059201;28;20639;-54
2021/09/12 11:37:00;;;;;;;6.43;5.83;;;27.00;99.90;;;;;;5059378;28;20443;-58
2021/09/12 11:39:37;;;;;;;6.80;6.30;;;26.70;99.90;;;;;;5055460;28;20629;-52
2021/09/12 11:42:08;;;;;;;6.43;6.07;;;26.70;99.90;;;;;;5044397;28;20449;-57
2021/09/12 11:44:40;;;;;;;6.57;6.07;;;26.60;99.90;;;;;;5061764;28;20507;-55
2021/09/12 11:47:15;;;;;;;6.87;6.47;;;26.50;99.90;;;;;;5062397;28;20483;-54
2021/09/12 11:49:44;;;;;;;7.37;6.67;;;26.40;99.90;;;;;;5063454;28;20808;-53
2021/09/12 11:52:11;;;;;;;6.87;6.37;;;25.80;99.90;;;;;;5056624;28;20457;-57
2021/09/12 11:54:38;;;;;;;7.50;7.00;;;25.70;99.90;;;;;;5063385;28;20832;-56
2021/09/12 11:57:09;;;;;;;6.10;5.70;;;25.90;99.90;;;;;;5062610;28;20490;-57
2021/09/12 11:59:46;;;;;;;6.40;6.00;;;25.90;99.90;;;;;;5063180;28;20441;-53
2021/09/12 12:02:20;;;;;;;6.00;5.60;;;26.00;99.90;;;;;;5056936;28;20853;-56
2021/09/12 12:04:48;;;;;;;6.30;5.80;;;26.20;99.90;;;;;;5063190;28;20504;-56
2021/09/12 12:07:18;;;;;;;6.10;5.70;;;26.40;99.90;;;;;;5062588;28;20755;-54
2021/09/12 12:09:47;;;;;;;6.93;6.53;;;26.30;99.90;;;;;;5061990;28;20433;-58
2021/09/12 12:12:17;;;;;;;6.50;6.00;;;26.10;99.90;;;;;;5062100;28;21346;-56
2021/09/12 12:14:47;;;;;;;6.13;5.73;;;26.10;99.90;;;;;;5058141;28;20437;-56
2021/09/12 12:17:20;;;;;;;6.40;6.00;;;26.20;99.90;;;;;;5061800;28;20767;-52
2021/09/12 12:19:49;;;;;;;7.00;6.50;;;26.30;99.90;;;;;;5062797;28;20436;-53
2021/09/12 12:22:18;;;;;;;5.93;5.53;;;26.30;99.90;;;;;;5062444;28;20503;-58
2021/09/12 12:24:51;;;;;;;6.77;6.27;;;26.50;99.90;;;;;;5062615;28;20473;-55
2021/09/12 12:27:18;;;;;;;6.53;5.87;;;26.60;99.90;;;;;;5055474;28;20772;-57
2021/09/12 12:29:57;;;;;;;6.83;6.33;;;26.70;99.90;;;;;;5060514;28;20434;-56
2021/09/12 12:32:26;;;;;;;6.00;5.60;;;26.90;99.90;;;;;;5061073;28;20445;-55
2021/09/12 12:34:56;;;;;;;6.13;5.70;;;27.20;99.90;;;;;;5062512;28;20438;-55
2021/09/12 12:37:32;;;;;;;6.70;6.20;;;27.30;99.90;;;;;;5059980;28;20473;-59
2021/09/12 12:40:04;;;;;;;7.40;6.90;;;27.50;99.90;;;;;;5060530;28;20757;-59
2021/09/12 12:42:39;;;;;;;6.30;5.80;;;27.50;99.90;;;;;;5060843;28;20707;-54